sensor_id;sensor_type;location;lat;lon;timestamp;P1;durP1;ratioP1;P2;durP2;ratioP2
1837;SDS011;918;50.796;6.772;2022-12-07T00:03:51;24.83;;;22.33;;
1837;SDS011;918;50.796;6.772;2022-12-07T00:06:17;25.63;;;22.90;;
1837;SDS011;918;50.796;6.772;2022-12-07T00:08:43;25.87;;;23.07;;
1837;SDS011;918;50.796;6.772;2022-12-07T00:11:10;27.00;;;23.47;;
1837;SDS011;918;50.796;6.772;2022-12-07T00:13:37;26.30;;;23.60;;
1837;SDS011;918;50.796;6.772;2022-12-07T00:16:03;26.23;;;23.60;;
1837;SDS011;918;50.796;6.772;2022-12-07T00:18:31;27.27;;;24.37;;
1837;SDS011;918;50.796;6.772;2022-12-07T00:21:00;26.90;;;23.37;;
1837;SDS011;918;50.796;6.772;2022-12-07T00:23:46;27.33;;;24.43;;
1837;SDS011;918;50.796;6.772;2022-12-07T00:26:13;29.03;;;24.90;;
1837;SDS011;918;50.796;6.772;2022-12-07T00:28:40;28.00;;;25.03;;
1837;SDS011;918;50.796;6.772;2022-12-07T00:31:07;25.80;;;23.20;;
1837;SDS011;918;50.796;6.772;2022-12-07T00:33:34;28.70;;;25.77;;
1837;SDS011;918;50.796;6.772;2022-12-07T00:36:00;27.37;;;24.47;;
1837;SDS011;918;50.796;6.772;2022-12-07T00:38:27;32.07;;;24.53;;
1837;SDS011;918;50.796;6.772;2022-12-07T00:41:04;27.37;;;24.47;;
1837;SDS011;918;50.796;6.772;2022-12-07T00:43:30;28.70;;;25.80;;
1837;SDS011;918;50.796;6.772;2022-12-07T00:45:56;29.40;;;25.10;;
1837;SDS011;918;50.796;6.772;2022-12-07T00:48:22;25.97;;;23.27;;
1837;SDS011;918;50.796;6.772;2022-12-07T00:50:47;27.27;;;24.27;;
1837;SDS011;918;50.796;6.772;2022-12-07T00:53:13;27.07;;;24.07;;
1837;SDS011;918;50.796;6.772;2022-12-07T00:55:38;27.33;;;24.37;;
1837;SDS011;918;50.796;6.772;2022-12-07T00:58:04;27.40;;;23.57;;
1837;SDS011;918;50.796;6.772;2022-12-07T01:00:29;27.33;;;24.50;;
1837;SDS011;918;50.796;6.772;2022-12-07T01:02:55;28.63;;;24.10;;
1837;SDS011;918;50.796;6.772;2022-12-07T01:05:20;27.33;;;24.43;;
1837;SDS011;918;50.796;6.772;2022-12-07T01:07:45;28.87;;;23.93;;
1837;SDS011;918;50.796;6.772;2022-12-07T01:10:11;26.03;;;22.83;;
1837;SDS011;918;50.796;6.772;2022-12-07T01:12:37;28.70;;;24.53;;
1837;SDS011;918;50.796;6.772;2022-12-07T01:15:02;25.87;;;23.37;;
1837;SDS011;918;50.796;6.772;2022-12-07T01:17:28;26.63;;;23.43;;
1837;SDS011;918;50.796;6.772;2022-12-07T01:19:53;27.50;;;24.70;;
1837;SDS011;918;50.796;6.772;2022-12-07T01:22:19;27.07;;;24.13;;
1837;SDS011;918;50.796;6.772;2022-12-07T01:24:44;28.03;;;24.13;;
1837;SDS011;918;50.796;6.772;2022-12-07T01:27:11;31.13;;;25.70;;
1837;SDS011;918;50.796;6.772;2022-12-07T01:29:36;28.80;;;23.37;;
1837;SDS011;918;50.796;6.772;2022-12-07T01:32:02;28.90;;;25.17;;
1837;SDS011;918;50.796;6.772;2022-12-07T01:34:27;27.50;;;24.60;;
1837;SDS011;918;50.796;6.772;2022-12-07T01:36:52;26.63;;;23.83;;
1837;SDS011;918;50.796;6.772;2022-12-07T01:39:17;30.00;;;26.13;;
1837;SDS011;918;50.796;6.772;2022-12-07T01:41:43;28.80;;;25.17;;
1837;SDS011;918;50.796;6.772;2022-12-07T01:46:35;27.50;;;24.50;;
1837;SDS011;918;50.796;6.772;2022-12-07T01:49:00;27.50;;;24.50;;
1837;SDS011;918;50.796;6.772;2022-12-07T01:51:27;28.37;;;25.37;;
1837;SDS011;918;50.796;6.772;2022-12-07T01:53:52;29.47;;;25.63;;
1837;SDS011;918;50.796;6.772;2022-12-07T01:56:18;26.60;;;23.83;;
1837;SDS011;918;50.796;6.772;2022-12-07T01:58:45;29.10;;;25.73;;
1837;SDS011;918;50.796;6.772;2022-12-07T02:01:11;28.70;;;25.70;;
1837;SDS011;918;50.796;6.772;2022-12-07T02:03:39;29.33;;;24.20;;
1837;SDS011;918;50.796;6.772;2022-12-07T02:06:07;27.20;;;24.30;;
1837;SDS011;918;50.796;6.772;2022-12-07T02:08:33;28.20;;;24.07;;
1837;SDS011;918;50.796;6.772;2022-12-07T02:10:59;26.87;;;23.77;;
1837;SDS011;918;50.796;6.772;2022-12-07T02:13:26;28.37;;;24.73;;
1837;SDS011;918;50.796;6.772;2022-12-07T02:18:41;29.50;;;22.87;;
1837;SDS011;918;50.796;6.772;2022-12-07T02:21:36;30.10;;;23.37;;
1837;SDS011;918;50.796;6.772;2022-12-07T02:32:16;23.50;;;21.07;;
1837;SDS011;918;50.796;6.772;2022-12-07T02:35:05;23.90;;;21.50;;
1837;SDS011;918;50.796;6.772;2022-12-07T02:40:05;24.60;;;21.67;;
1837;SDS011;918;50.796;6.772;2022-12-07T02:42:36;23.77;;;21.23;;
1837;SDS011;918;50.796;6.772;2022-12-07T02:45:03;24.67;;;21.80;;
1837;SDS011;918;50.796;6.772;2022-12-07T02:47:30;24.10;;;21.70;;
1837;SDS011;918;50.796;6.772;2022-12-07T02:49:56;25.13;;;22.43;;
1837;SDS011;918;50.796;6.772;2022-12-07T02:52:22;24.33;;;20.40;;
1837;SDS011;918;50.796;6.772;2022-12-07T02:54:47;25.03;;;22.13;;
1837;SDS011;918;50.796;6.772;2022-12-07T02:57:21;26.00;;;23.20;;
1837;SDS011;918;50.796;6.772;2022-12-07T03:02:40;24.80;;;22.20;;
1837;SDS011;918;50.796;6.772;2022-12-07T03:08:06;26.33;;;23.20;;
1837;SDS011;918;50.796;6.772;2022-12-07T03:10:42;27.77;;;22.67;;
1837;SDS011;918;50.796;6.772;2022-12-07T03:13:20;25.40;;;22.77;;
1837;SDS011;918;50.796;6.772;2022-12-07T03:18:41;27.07;;;24.30;;
1837;SDS011;918;50.796;6.772;2022-12-07T03:21:15;26.03;;;23.33;;
1837;SDS011;918;50.796;6.772;2022-12-07T03:23:44;25.17;;;22.80;;
1837;SDS011;918;50.796;6.772;2022-12-07T03:26:11;25.70;;;23.00;;
1837;SDS011;918;50.796;6.772;2022-12-07T03:28:39;25.93;;;23.20;;
1837;SDS011;918;50.796;6.772;2022-12-07T03:31:11;26.27;;;23.53;;
1837;SDS011;918;50.796;6.772;2022-12-07T03:33:40;28.90;;;24.10;;
1837;SDS011;918;50.796;6.772;2022-12-07T03:39:22;26.20;;;22.30;;
1837;SDS011;918;50.796;6.772;2022-12-07T03:41:54;26.70;;;22.73;;
1837;SDS011;918;50.796;6.772;2022-12-07T03:44:21;24.63;;;22.07;;
1837;SDS011;918;50.796;6.772;2022-12-07T03:46:59;26.97;;;23.30;;
1837;SDS011;918;50.796;6.772;2022-12-07T03:49:30;26.37;;;23.50;;
1837;SDS011;918;50.796;6.772;2022-12-07T03:57:18;24.53;;;21.27;;
1837;SDS011;918;50.796;6.772;2022-12-07T03:59:45;27.50;;;22.43;;
1837;SDS011;918;50.796;6.772;2022-12-07T04:02:11;29.33;;;23.43;;
1837;SDS011;918;50.796;6.772;2022-12-07T04:04:37;28.70;;;23.57;;
1837;SDS011;918;50.796;6.772;2022-12-07T04:07:03;26.17;;;21.53;;
1837;SDS011;918;50.796;6.772;2022-12-07T04:09:28;24.47;;;21.73;;
1837;SDS011;918;50.796;6.772;2022-12-07T04:11:53;23.60;;;21.07;;
1837;SDS011;918;50.796;6.772;2022-12-07T04:14:19;26.23;;;20.80;;
1837;SDS011;918;50.796;6.772;2022-12-07T04:16:45;21.50;;;19.27;;
1837;SDS011;918;50.796;6.772;2022-12-07T04:19:14;23.93;;;21.43;;
1837;SDS011;918;50.796;6.772;2022-12-07T04:21:40;27.00;;;23.10;;
1837;SDS011;918;50.796;6.772;2022-12-07T04:24:05;24.60;;;22.00;;
1837;SDS011;918;50.796;6.772;2022-12-07T04:26:31;27.20;;;23.10;;
1837;SDS011;918;50.796;6.772;2022-12-07T04:28:56;21.80;;;19.50;;
1837;SDS011;918;50.796;6.772;2022-12-07T04:31:21;24.17;;;21.60;;
1837;SDS011;918;50.796;6.772;2022-12-07T04:33:47;29.73;;;21.20;;
1837;SDS011;918;50.796;6.772;2022-12-07T04:36:12;23.93;;;20.83;;
1837;SDS011;918;50.796;6.772;2022-12-07T04:38:37;23.27;;;20.77;;
1837;SDS011;918;50.796;6.772;2022-12-07T04:41:06;21.87;;;18.80;;
1837;SDS011;918;50.796;6.772;2022-12-07T04:43:32;24.90;;;19.47;;
1837;SDS011;918;50.796;6.772;2022-12-07T04:45:57;25.40;;;20.40;;
1837;SDS011;918;50.796;6.772;2022-12-07T04:48:22;26.20;;;20.70;;
1837;SDS011;918;50.796;6.772;2022-12-07T04:50:48;24.20;;;19.80;;
1837;SDS011;918;50.796;6.772;2022-12-07T04:53:16;24.97;;;22.13;;
1837;SDS011;918;50.796;6.772;2022-12-07T04:55:42;21.50;;;18.50;;
1837;SDS011;918;50.796;6.772;2022-12-07T04:58:07;22.10;;;19.80;;
1837;SDS011;918;50.796;6.772;2022-12-07T05:00:32;20.93;;;18.73;;
1837;SDS011;918;50.796;6.772;2022-12-07T05:02:57;23.20;;;19.00;;
1837;SDS011;918;50.796;6.772;2022-12-07T05:05:23;21.33;;;18.97;;
1837;SDS011;918;50.796;6.772;2022-12-07T05:07:49;25.07;;;21.10;;
1837;SDS011;918;50.796;6.772;2022-12-07T05:10:14;23.87;;;19.33;;
1837;SDS011;918;50.796;6.772;2022-12-07T05:12:39;25.20;;;21.70;;
1837;SDS011;918;50.796;6.772;2022-12-07T05:15:05;22.77;;;20.50;;
1837;SDS011;918;50.796;6.772;2022-12-07T05:17:30;23.90;;;20.30;;
1837;SDS011;918;50.796;6.772;2022-12-07T05:19:55;24.20;;;20.20;;
1837;SDS011;918;50.796;6.772;2022-12-07T05:22:21;23.90;;;19.37;;
1837;SDS011;918;50.796;6.772;2022-12-07T05:24:46;27.63;;;22.53;;
1837;SDS011;918;50.796;6.772;2022-12-07T05:27:11;21.63;;;19.33;;
1837;SDS011;918;50.796;6.772;2022-12-07T05:29:37;23.97;;;18.90;;
1837;SDS011;918;50.796;6.772;2022-12-07T05:32:02;25.70;;;20.00;;
1837;SDS011;918;50.796;6.772;2022-12-07T05:34:27;23.70;;;20.10;;
1837;SDS011;918;50.796;6.772;2022-12-07T05:36:52;24.73;;;20.10;;
1837;SDS011;918;50.796;6.772;2022-12-07T05:39:17;23.17;;;19.57;;
1837;SDS011;918;50.796;6.772;2022-12-07T05:41:43;25.27;;;19.87;;
1837;SDS011;918;50.796;6.772;2022-12-07T05:44:26;26.80;;;21.07;;
1837;SDS011;918;50.796;6.772;2022-12-07T05:46:52;23.13;;;19.43;;
1837;SDS011;918;50.796;6.772;2022-12-07T05:49:17;26.47;;;21.30;;
1837;SDS011;918;50.796;6.772;2022-12-07T05:51:42;22.37;;;19.97;;
1837;SDS011;918;50.796;6.772;2022-12-07T05:54:07;23.57;;;20.20;;
1837;SDS011;918;50.796;6.772;2022-12-07T05:56:33;23.70;;;20.20;;
1837;SDS011;918;50.796;6.772;2022-12-07T05:58:58;27.20;;;21.20;;
1837;SDS011;918;50.796;6.772;2022-12-07T06:01:42;28.40;;;21.50;;
1837;SDS011;918;50.796;6.772;2022-12-07T06:04:07;27.53;;;20.23;;
1837;SDS011;918;50.796;6.772;2022-12-07T06:06:32;28.20;;;20.63;;
1837;SDS011;918;50.796;6.772;2022-12-07T06:08:58;23.97;;;21.17;;
1837;SDS011;918;50.796;6.772;2022-12-07T06:11:23;25.50;;;21.70;;
1837;SDS011;918;50.796;6.772;2022-12-07T06:14:07;24.30;;;20.73;;
1837;SDS011;918;50.796;6.772;2022-12-07T06:16:32;24.80;;;18.00;;
1837;SDS011;918;50.796;6.772;2022-12-07T06:18:57;19.30;;;15.03;;
1837;SDS011;918;50.796;6.772;2022-12-07T06:21:23;17.10;;;14.90;;
1837;SDS011;918;50.796;6.772;2022-12-07T06:23:48;17.30;;;14.60;;
1837;SDS011;918;50.796;6.772;2022-12-07T06:26:14;17.03;;;14.47;;
1837;SDS011;918;50.796;6.772;2022-12-07T06:28:39;20.70;;;14.43;;
1837;SDS011;918;50.796;6.772;2022-12-07T06:31:05;15.93;;;14.30;;
1837;SDS011;918;50.796;6.772;2022-12-07T06:33:30;20.53;;;18.43;;
1837;SDS011;918;50.796;6.772;2022-12-07T06:35:56;19.30;;;16.83;;
1837;SDS011;918;50.796;6.772;2022-12-07T06:38:21;21.90;;;18.20;;
1837;SDS011;918;50.796;6.772;2022-12-07T06:40:46;20.00;;;17.07;;
1837;SDS011;918;50.796;6.772;2022-12-07T06:43:12;22.30;;;18.03;;
1837;SDS011;918;50.796;6.772;2022-12-07T06:45:37;22.90;;;20.37;;
1837;SDS011;918;50.796;6.772;2022-12-07T06:48:02;25.57;;;19.87;;
1837;SDS011;918;50.796;6.772;2022-12-07T06:50:27;21.83;;;19.10;;
1837;SDS011;918;50.796;6.772;2022-12-07T06:52:53;20.63;;;17.60;;
1837;SDS011;918;50.796;6.772;2022-12-07T06:55:18;24.23;;;20.43;;
1837;SDS011;918;50.796;6.772;2022-12-07T06:57:44;27.40;;;20.63;;
1837;SDS011;918;50.796;6.772;2022-12-07T07:00:09;26.50;;;21.30;;
1837;SDS011;918;50.796;6.772;2022-12-07T07:02:35;22.50;;;20.10;;
1837;SDS011;918;50.796;6.772;2022-12-07T07:05:00;28.20;;;21.80;;
1837;SDS011;918;50.796;6.772;2022-12-07T07:07:26;25.90;;;21.10;;
1837;SDS011;918;50.796;6.772;2022-12-07T07:09:51;28.10;;;21.20;;
1837;SDS011;918;50.796;6.772;2022-12-07T07:12:16;27.67;;;21.37;;
1837;SDS011;918;50.796;6.772;2022-12-07T07:14:41;23.67;;;19.27;;
1837;SDS011;918;50.796;6.772;2022-12-07T07:17:08;27.90;;;20.77;;
1837;SDS011;918;50.796;6.772;2022-12-07T07:19:33;22.60;;;19.30;;
1837;SDS011;918;50.796;6.772;2022-12-07T07:21:58;26.90;;;20.00;;
1837;SDS011;918;50.796;6.772;2022-12-07T07:24:23;23.60;;;19.90;;
1837;SDS011;918;50.796;6.772;2022-12-07T07:26:48;23.50;;;19.47;;
1837;SDS011;918;50.796;6.772;2022-12-07T07:29:14;22.83;;;18.67;;
1837;SDS011;918;50.796;6.772;2022-12-07T07:31:39;23.20;;;19.23;;
1837;SDS011;918;50.796;6.772;2022-12-07T07:34:04;22.47;;;19.30;;
1837;SDS011;918;50.796;6.772;2022-12-07T07:36:29;24.00;;;19.80;;
1837;SDS011;918;50.796;6.772;2022-12-07T07:38:55;22.90;;;19.37;;
1837;SDS011;918;50.796;6.772;2022-12-07T07:41:20;22.10;;;18.77;;
1837;SDS011;918;50.796;6.772;2022-12-07T07:43:45;20.73;;;18.63;;
1837;SDS011;918;50.796;6.772;2022-12-07T07:46:10;25.30;;;20.50;;
1837;SDS011;918;50.796;6.772;2022-12-07T07:48:36;22.00;;;19.60;;
1837;SDS011;918;50.796;6.772;2022-12-07T07:51:04;21.70;;;19.03;;
1837;SDS011;918;50.796;6.772;2022-12-07T07:53:30;20.10;;;18.00;;
1837;SDS011;918;50.796;6.772;2022-12-07T07:55:55;23.83;;;18.77;;
1837;SDS011;918;50.796;6.772;2022-12-07T07:58:21;23.27;;;19.60;;
1837;SDS011;918;50.796;6.772;2022-12-07T08:00:46;21.13;;;18.70;;
1837;SDS011;918;50.796;6.772;2022-12-07T08:03:12;19.40;;;17.30;;
1837;SDS011;918;50.796;6.772;2022-12-07T08:05:37;22.53;;;17.37;;
1837;SDS011;918;50.796;6.772;2022-12-07T08:08:03;19.97;;;17.73;;
1837;SDS011;918;50.796;6.772;2022-12-07T08:10:28;20.77;;;17.47;;
1837;SDS011;918;50.796;6.772;2022-12-07T08:12:53;20.27;;;16.83;;
1837;SDS011;918;50.796;6.772;2022-12-07T08:15:39;19.17;;;16.47;;
1837;SDS011;918;50.796;6.772;2022-12-07T08:18:06;21.20;;;17.70;;
1837;SDS011;918;50.796;6.772;2022-12-07T08:20:33;19.87;;;17.03;;
1837;SDS011;918;50.796;6.772;2022-12-07T08:22:59;17.57;;;15.77;;
1837;SDS011;918;50.796;6.772;2022-12-07T08:25:24;20.07;;;15.93;;
1837;SDS011;918;50.796;6.772;2022-12-07T08:27:50;20.20;;;16.63;;
1837;SDS011;918;50.796;6.772;2022-12-07T08:30:16;21.57;;;17.20;;
1837;SDS011;918;50.796;6.772;2022-12-07T08:32:41;21.23;;;17.93;;
1837;SDS011;918;50.796;6.772;2022-12-07T08:35:07;22.03;;;16.07;;
1837;SDS011;918;50.796;6.772;2022-12-07T08:37:33;20.50;;;15.80;;
1837;SDS011;918;50.796;6.772;2022-12-07T08:39:58;20.17;;;18.10;;
1837;SDS011;918;50.796;6.772;2022-12-07T08:42:23;20.70;;;17.80;;
1837;SDS011;918;50.796;6.772;2022-12-07T08:44:52;23.07;;;17.93;;
1837;SDS011;918;50.796;6.772;2022-12-07T08:47:18;22.57;;;17.53;;
1837;SDS011;918;50.796;6.772;2022-12-07T08:49:44;21.00;;;18.80;;
1837;SDS011;918;50.796;6.772;2022-12-07T08:52:12;22.43;;;17.33;;
1837;SDS011;918;50.796;6.772;2022-12-07T08:54:38;20.77;;;18.53;;
1837;SDS011;918;50.796;6.772;2022-12-07T08:57:04;18.50;;;15.60;;
1837;SDS011;918;50.796;6.772;2022-12-07T08:59:29;19.80;;;17.33;;
1837;SDS011;918;50.796;6.772;2022-12-07T09:01:55;21.13;;;16.93;;
1837;SDS011;918;50.796;6.772;2022-12-07T09:04:20;20.93;;;17.50;;
1837;SDS011;918;50.796;6.772;2022-12-07T09:06:46;22.80;;;17.97;;
1837;SDS011;918;50.796;6.772;2022-12-07T09:09:12;20.80;;;18.10;;
1837;SDS011;918;50.796;6.772;2022-12-07T09:11:38;24.40;;;17.63;;
1837;SDS011;918;50.796;6.772;2022-12-07T09:14:04;19.57;;;16.87;;
1837;SDS011;918;50.796;6.772;2022-12-07T09:16:29;19.43;;;16.70;;
1837;SDS011;918;50.796;6.772;2022-12-07T09:18:55;22.40;;;18.30;;
1837;SDS011;918;50.796;6.772;2022-12-07T09:21:20;19.53;;;16.10;;
1837;SDS011;918;50.796;6.772;2022-12-07T09:23:45;20.73;;;17.10;;
1837;SDS011;918;50.796;6.772;2022-12-07T09:26:10;22.20;;;17.10;;
1837;SDS011;918;50.796;6.772;2022-12-07T09:28:36;22.23;;;17.07;;
1837;SDS011;918;50.796;6.772;2022-12-07T09:31:02;19.30;;;16.67;;
1837;SDS011;918;50.796;6.772;2022-12-07T09:33:27;19.17;;;16.73;;
1837;SDS011;918;50.796;6.772;2022-12-07T09:35:53;19.43;;;17.27;;
1837;SDS011;918;50.796;6.772;2022-12-07T09:38:18;19.30;;;16.60;;
1837;SDS011;918;50.796;6.772;2022-12-07T09:40:44;19.10;;;17.10;;
1837;SDS011;918;50.796;6.772;2022-12-07T09:43:20;16.90;;;15.07;;
1837;SDS011;918;50.796;6.772;2022-12-07T09:45:47;18.40;;;15.50;;
1837;SDS011;918;50.796;6.772;2022-12-07T09:48:21;19.83;;;16.17;;
1837;SDS011;918;50.796;6.772;2022-12-07T09:50:48;17.90;;;16.00;;
1837;SDS011;918;50.796;6.772;2022-12-07T09:53:23;18.30;;;15.33;;
1837;SDS011;918;50.796;6.772;2022-12-07T09:55:50;20.07;;;16.00;;
1837;SDS011;918;50.796;6.772;2022-12-07T09:58:21;18.00;;;14.97;;
1837;SDS011;918;50.796;6.772;2022-12-07T10:00:49;19.43;;;15.17;;
1837;SDS011;918;50.796;6.772;2022-12-07T10:03:15;23.73;;;15.20;;
1837;SDS011;918;50.796;6.772;2022-12-07T10:05:42;15.90;;;14.07;;
1837;SDS011;918;50.796;6.772;2022-12-07T10:08:13;14.23;;;11.90;;
1837;SDS011;918;50.796;6.772;2022-12-07T10:10:39;13.10;;;11.80;;
1837;SDS011;918;50.796;6.772;2022-12-07T10:13:08;14.90;;;13.27;;
1837;SDS011;918;50.796;6.772;2022-12-07T10:18:17;12.43;;;11.23;;
1837;SDS011;918;50.796;6.772;2022-12-07T10:20:44;17.27;;;11.07;;
1837;SDS011;918;50.796;6.772;2022-12-07T10:23:14;13.43;;;12.10;;
1837;SDS011;918;50.796;6.772;2022-12-07T10:25:41;13.40;;;10.50;;
1837;SDS011;918;50.796;6.772;2022-12-07T10:30:32;11.57;;;10.10;;
1837;SDS011;918;50.796;6.772;2022-12-07T10:32:58;11.37;;;9.67;;
1837;SDS011;918;50.796;6.772;2022-12-07T10:35:28;10.47;;;8.67;;
1837;SDS011;918;50.796;6.772;2022-12-07T10:37:55;10.93;;;8.30;;
1837;SDS011;918;50.796;6.772;2022-12-07T10:45:35;11.10;;;8.30;;
1837;SDS011;918;50.796;6.772;2022-12-07T10:48:22;10.30;;;7.60;;
1837;SDS011;918;50.796;6.772;2022-12-07T10:51:07;8.80;;;7.13;;
1837;SDS011;918;50.796;6.772;2022-12-07T10:58:56;8.60;;;7.70;;
1837;SDS011;918;50.796;6.772;2022-12-07T11:01:46;12.20;;;8.40;;
1837;SDS011;918;50.796;6.772;2022-12-07T11:15:24;10.80;;;8.17;;
1837;SDS011;918;50.796;6.772;2022-12-07T11:17:54;11.57;;;8.70;;
1837;SDS011;918;50.796;6.772;2022-12-07T11:23:11;9.10;;;7.13;;
1837;SDS011;918;50.796;6.772;2022-12-07T11:25:53;9.00;;;7.80;;
1837;SDS011;918;50.796;6.772;2022-12-07T11:28:28;10.57;;;8.40;;
1837;SDS011;918;50.796;6.772;2022-12-07T11:31:13;10.63;;;9.53;;
1837;SDS011;918;50.796;6.772;2022-12-07T11:34:21;11.40;;;10.20;;
1837;SDS011;918;50.796;6.772;2022-12-07T11:36:52;14.17;;;11.20;;
1837;SDS011;918;50.796;6.772;2022-12-07T11:39:22;13.63;;;9.57;;
1837;SDS011;918;50.796;6.772;2022-12-07T11:41:56;14.63;;;9.57;;
1837;SDS011;918;50.796;6.772;2022-12-07T11:55:48;11.57;;;8.90;;
1837;SDS011;918;50.796;6.772;2022-12-07T12:00:46;10.07;;;7.13;;
1837;SDS011;918;50.796;6.772;2022-12-07T12:03:14;9.07;;;7.03;;
1837;SDS011;918;50.796;6.772;2022-12-07T12:05:41;9.03;;;7.47;;
1837;SDS011;918;50.796;6.772;2022-12-07T12:10:55;7.27;;;6.57;;
1837;SDS011;918;50.796;6.772;2022-12-07T12:22:37;9.83;;;8.83;;
1837;SDS011;918;50.796;6.772;2022-12-07T12:27:50;11.70;;;9.07;;
1837;SDS011;918;50.796;6.772;2022-12-07T12:30:30;9.60;;;8.60;;
1837;SDS011;918;50.796;6.772;2022-12-07T12:33:43;11.57;;;9.70;;
1837;SDS011;918;50.796;6.772;2022-12-07T12:44:00;14.60;;;9.90;;
1837;SDS011;918;50.796;6.772;2022-12-07T12:48:54;10.10;;;9.00;;
1837;SDS011;918;50.796;6.772;2022-12-07T12:51:36;11.70;;;9.20;;
1837;SDS011;918;50.796;6.772;2022-12-07T12:54:04;14.67;;;9.60;;
1837;SDS011;918;50.796;6.772;2022-12-07T12:56:39;13.20;;;11.37;;
1837;SDS011;918;50.796;6.772;2022-12-07T12:59:42;9.93;;;8.93;;
1837;SDS011;918;50.796;6.772;2022-12-07T13:15:43;10.40;;;9.50;;
1837;SDS011;918;50.796;6.772;2022-12-07T13:21:02;10.40;;;9.37;;
1837;SDS011;918;50.796;6.772;2022-12-07T13:23:57;11.10;;;10.10;;
1837;SDS011;918;50.796;6.772;2022-12-07T13:29:14;11.63;;;10.53;;
1837;SDS011;918;50.796;6.772;2022-12-07T13:31:48;10.60;;;9.60;;
1837;SDS011;918;50.796;6.772;2022-12-07T13:34:28;11.33;;;10.00;;
1837;SDS011;918;50.796;6.772;2022-12-07T13:36:54;12.87;;;10.03;;
1837;SDS011;918;50.796;6.772;2022-12-07T13:39:20;10.30;;;9.13;;
1837;SDS011;918;50.796;6.772;2022-12-07T13:41:51;9.33;;;8.53;;
1837;SDS011;918;50.796;6.772;2022-12-07T13:44:18;11.30;;;8.47;;
1837;SDS011;918;50.796;6.772;2022-12-07T13:46:46;10.20;;;7.90;;
1837;SDS011;918;50.796;6.772;2022-12-07T13:49:27;12.50;;;8.60;;
1837;SDS011;918;50.796;6.772;2022-12-07T13:51:54;10.03;;;8.80;;
1837;SDS011;918;50.796;6.772;2022-12-07T13:54:20;10.27;;;9.37;;
1837;SDS011;918;50.796;6.772;2022-12-07T13:56:50;11.53;;;9.27;;
1837;SDS011;918;50.796;6.772;2022-12-07T13:59:17;14.20;;;9.27;;
1837;SDS011;918;50.796;6.772;2022-12-07T14:01:47;10.57;;;9.47;;
1837;SDS011;918;50.796;6.772;2022-12-07T14:04:18;10.67;;;9.50;;
1837;SDS011;918;50.796;6.772;2022-12-07T14:06:48;10.60;;;9.50;;
1837;SDS011;918;50.796;6.772;2022-12-07T14:09:22;9.53;;;8.60;;
1837;SDS011;918;50.796;6.772;2022-12-07T14:11:48;10.73;;;8.93;;
1837;SDS011;918;50.796;6.772;2022-12-07T14:14:16;12.67;;;9.33;;
1837;SDS011;918;50.796;6.772;2022-12-07T14:16:45;11.57;;;9.10;;
1837;SDS011;918;50.796;6.772;2022-12-07T14:19:40;11.63;;;10.53;;
1837;SDS011;918;50.796;6.772;2022-12-07T14:22:24;11.60;;;8.80;;
1837;SDS011;918;50.796;6.772;2022-12-07T14:25:43;11.93;;;9.30;;
1837;SDS011;918;50.796;6.772;2022-12-07T14:27:47;9.40;;;8.30;;
1837;SDS011;918;50.796;6.772;2022-12-07T14:30:16;9.70;;;8.37;;
1837;SDS011;918;50.796;6.772;2022-12-07T14:32:42;9.67;;;8.67;;
1837;SDS011;918;50.796;6.772;2022-12-07T14:35:13;10.37;;;9.47;;
1837;SDS011;918;50.796;6.772;2022-12-07T14:37:40;11.20;;;8.70;;
1837;SDS011;918;50.796;6.772;2022-12-07T14:40:11;9.70;;;8.60;;
1837;SDS011;918;50.796;6.772;2022-12-07T14:42:38;9.03;;;8.23;;
1837;SDS011;918;50.796;6.772;2022-12-07T14:45:05;12.80;;;8.80;;
1837;SDS011;918;50.796;6.772;2022-12-07T14:47:31;9.40;;;8.40;;
1837;SDS011;918;50.796;6.772;2022-12-07T14:49:56;9.50;;;8.57;;
1837;SDS011;918;50.796;6.772;2022-12-07T14:52:26;9.87;;;8.63;;
1837;SDS011;918;50.796;6.772;2022-12-07T14:54:53;10.10;;;9.10;;
1837;SDS011;918;50.796;6.772;2022-12-07T14:57:19;9.83;;;8.90;;
1837;SDS011;918;50.796;6.772;2022-12-07T14:59:44;10.90;;;8.27;;
1837;SDS011;918;50.796;6.772;2022-12-07T15:02:10;11.07;;;9.77;;
1837;SDS011;918;50.796;6.772;2022-12-07T15:04:37;9.80;;;8.47;;
1837;SDS011;918;50.796;6.772;2022-12-07T15:07:03;9.60;;;8.70;;
1837;SDS011;918;50.796;6.772;2022-12-07T15:09:29;10.97;;;10.00;;
1837;SDS011;918;50.796;6.772;2022-12-07T15:11:54;13.37;;;9.00;;
1837;SDS011;918;50.796;6.772;2022-12-07T15:14:20;9.83;;;8.93;;
1837;SDS011;918;50.796;6.772;2022-12-07T15:16:45;10.30;;;8.90;;
1837;SDS011;918;50.796;6.772;2022-12-07T15:19:14;11.13;;;8.83;;
1837;SDS011;918;50.796;6.772;2022-12-07T15:21:41;10.23;;;9.33;;
1837;SDS011;918;50.796;6.772;2022-12-07T15:24:07;11.00;;;10.00;;
1837;SDS011;918;50.796;6.772;2022-12-07T15:26:34;9.97;;;8.90;;
1837;SDS011;918;50.796;6.772;2022-12-07T15:28:59;14.40;;;9.53;;
1837;SDS011;918;50.796;6.772;2022-12-07T15:31:25;12.23;;;10.53;;
1837;SDS011;918;50.796;6.772;2022-12-07T15:33:50;12.63;;;8.83;;
1837;SDS011;918;50.796;6.772;2022-12-07T15:36:19;9.97;;;8.97;;
1837;SDS011;918;50.796;6.772;2022-12-07T15:38:46;9.57;;;8.70;;
1837;SDS011;918;50.796;6.772;2022-12-07T15:41:12;10.00;;;9.00;;
1837;SDS011;918;50.796;6.772;2022-12-07T15:43:37;10.57;;;9.57;;
1837;SDS011;918;50.796;6.772;2022-12-07T15:46:21;11.30;;;10.10;;
1837;SDS011;918;50.796;6.772;2022-12-07T15:48:46;10.50;;;9.57;;
1837;SDS011;918;50.796;6.772;2022-12-07T15:51:11;10.40;;;9.50;;
1837;SDS011;918;50.796;6.772;2022-12-07T15:53:36;11.40;;;10.40;;
1837;SDS011;918;50.796;6.772;2022-12-07T15:56:05;12.93;;;10.67;;
1837;SDS011;918;50.796;6.772;2022-12-07T15:58:31;12.87;;;11.57;;
1837;SDS011;918;50.796;6.772;2022-12-07T16:00:56;13.40;;;12.10;;
1837;SDS011;918;50.796;6.772;2022-12-07T16:03:21;14.80;;;12.97;;
1837;SDS011;918;50.796;6.772;2022-12-07T16:05:50;15.53;;;14.03;;
1837;SDS011;918;50.796;6.772;2022-12-07T16:08:16;15.43;;;13.87;;
1837;SDS011;918;50.796;6.772;2022-12-07T16:10:41;15.13;;;13.53;;
1837;SDS011;918;50.796;6.772;2022-12-07T16:13:08;14.73;;;13.07;;
1837;SDS011;918;50.796;6.772;2022-12-07T16:15:37;14.00;;;12.50;;
1837;SDS011;918;50.796;6.772;2022-12-07T16:18:06;14.17;;;12.17;;
1837;SDS011;918;50.796;6.772;2022-12-07T16:20:31;13.10;;;11.90;;
1837;SDS011;918;50.796;6.772;2022-12-07T16:22:56;11.43;;;10.43;;
1837;SDS011;918;50.796;6.772;2022-12-07T16:25:21;13.10;;;11.83;;
1837;SDS011;918;50.796;6.772;2022-12-07T16:27:47;12.80;;;11.60;;
1837;SDS011;918;50.796;6.772;2022-12-07T16:30:13;12.50;;;11.30;;
1837;SDS011;918;50.796;6.772;2022-12-07T16:32:39;12.87;;;11.50;;
1837;SDS011;918;50.796;6.772;2022-12-07T16:35:04;12.00;;;10.27;;
1837;SDS011;918;50.796;6.772;2022-12-07T16:37:30;15.70;;;13.30;;
1837;SDS011;918;50.796;6.772;2022-12-07T16:39:55;15.87;;;13.17;;
1837;SDS011;918;50.796;6.772;2022-12-07T16:42:20;14.47;;;13.10;;
1837;SDS011;918;50.796;6.772;2022-12-07T16:44:45;14.00;;;12.83;;
1837;SDS011;918;50.796;6.772;2022-12-07T16:47:11;14.27;;;12.87;;
1837;SDS011;918;50.796;6.772;2022-12-07T16:49:36;15.43;;;12.40;;
1837;SDS011;918;50.796;6.772;2022-12-07T16:52:01;14.27;;;12.90;;
1837;SDS011;918;50.796;6.772;2022-12-07T16:54:26;14.00;;;12.70;;
1837;SDS011;918;50.796;6.772;2022-12-07T16:56:55;13.27;;;12.17;;
1837;SDS011;918;50.796;6.772;2022-12-07T16:59:21;13.40;;;12.10;;
1837;SDS011;918;50.796;6.772;2022-12-07T17:01:46;14.50;;;12.90;;
1837;SDS011;918;50.796;6.772;2022-12-07T17:04:11;15.80;;;14.30;;
1837;SDS011;918;50.796;6.772;2022-12-07T17:06:36;13.30;;;12.00;;
1837;SDS011;918;50.796;6.772;2022-12-07T17:09:02;14.03;;;12.73;;
1837;SDS011;918;50.796;6.772;2022-12-07T17:11:29;13.40;;;12.00;;
1837;SDS011;918;50.796;6.772;2022-12-07T17:13:57;14.07;;;12.77;;